Time;durP1;ratioP1;P1;durP2;ratioP2;P2;SDS_P1;SDS_P2;PMS_P1;PMS_P2;Temp;Humidity;BMP_temperature;BMP_pressure;BME280_temperature;BME280_humidity;BME280_pressure;Samples;Min_cycle;Max_cycle;Signal;HPM_P1;HPM_P2
2021/08/02 00:00:48;;;;;;;15.75;7.47;;;;;;;;;;5073729;28;20008;-67
2021/08/02 00:03:17;;;;;;;15.75;8.35;;;;;;;;;;5071606;28;20013;-66
2021/08/02 00:05:45;;;;;;;11.15;7.45;;;;;;;;;;5073383;28;20066;-66
2021/08/02 00:08:11;;;;;;;12.35;7.32;;;;;;;;;;5068787;28;20029;-66
2021/08/02 00:10:36;;;;;;;11.07;7.45;;;;;;;;;;5073157;28;20432;-66
2021/08/02 00:13:08;;;;;;;12.23;7.40;;;;;;;;;;5073598;28;20082;-67
2021/08/02 00:15:33;;;;;;;13.38;8.07;;;;;;;;;;5063891;28;20028;-67
2021/08/02 00:17:59;;;;;;;13.70;8.07;;;;;;;;;;5073307;28;20021;-67
2021/08/02 00:20:31;;;;;;;17.58;8.85;;;;;;;;;;5073629;28;20023;-66
2021/08/02 00:22:57;;;;;;;11.20;8.00;;;;;;;;;;5069781;28;20384;-67
2021/08/02 00:25:22;;;;;;;17.05;9.23;;;;;;;;;;5073792;28;20025;-68
2021/08/02 00:27:49;;;;;;;16.70;10.27;;;;;;;;;;5055234;28;20123;-67
2021/08/02 00:30:14;;;;;;;15.57;9.52;;;;;;;;;;5073062;28;20032;-67
2021/08/02 00:32:40;;;;;;;15.73;9.18;;;;;;;;;;5072881;28;20017;-67
2021/08/02 00:35:05;;;;;;;17.63;8.70;;;;;;;;;;5073184;28;20020;-67
2021/08/02 00:37:49;;;;;;;16.88;8.88;;;;;;;;;;5073410;28;20585;-67
2021/08/02 00:40:14;;;;;;;11.85;8.35;;;;;;;;;;5072791;28;20103;-67
2021/08/02 00:42:55;;;;;;;13.53;8.67;;;;;;;;;;5073343;28;20092;-67
2021/08/02 00:45:20;;;;;;;;;;;;;;;;;;5070158;28;20747;-67
2021/08/02 00:47:48;;;;;;;14.73;9.63;;;;;;;;;;5073226;28;19910;-67
2021/08/02 00:50:15;;;;;;;14.13;8.70;;;;;;;;;;5073001;28;20119;-66
2021/08/02 00:52:49;;;;;;;17.85;9.93;;;;;;;;;;5072478;28;20025;-66
2021/08/02 00:55:15;;;;;;;15.20;10.07;;;;;;;;;;5072761;28;20096;-67
2021/08/02 00:57:41;;;;;;;19.50;10.10;;;;;;;;;;5073053;28;20116;-67
2021/08/02 01:00:08;;;;;;;16.35;10.13;;;;;;;;;;5072710;28;20111;-67
2021/08/02 01:02:36;;;;;;;13.73;9.95;;;;;;;;;;5070956;28;20066;-67
2021/08/02 01:05:02;;;;;;;18.83;9.55;;;;;;;;;;5072698;28;20029;-67
2021/08/02 01:07:29;;;;;;;20.00;10.18;;;;;;;;;;5072243;28;20031;-67
2021/08/02 01:09:54;;;;;;;14.48;9.40;;;;;;;;;;5072316;28;20484;-66
2021/08/02 01:12:20;;;;;;;19.63;11.30;;;;;;;;;;5072476;28;20016;-67
2021/08/02 01:14:46;;;;;;;18.15;11.52;;;;;;;;;;5072654;28;20024;-67
2021/08/02 01:17:11;;;;;;;16.13;10.82;;;;;;;;;;5072385;28;20039;-68
2021/08/02 01:19:36;;;;;;;15.80;10.20;;;;;;;;;;5071915;28;20047;-67
2021/08/02 01:22:03;;;;;;;18.55;10.45;;;;;;;;;;5071781;28;20586;-67
2021/08/02 01:24:29;;;;;;;16.20;10.48;;;;;;;;;;5072011;28;20504;-67
2021/08/02 01:27:00;;;;;;;17.00;11.27;;;;;;;;;;5072490;28;20028;-67
2021/08/02 01:29:43;;;;;;;18.23;10.35;;;;;;;;;;5071921;28;20029;-67
2021/08/02 01:32:09;;;;;;;21.45;11.73;;;;;;;;;;5068777;28;20024;-67
2021/08/02 01:34:34;;;;;;;21.85;11.32;;;;;;;;;;5071425;28;20035;-67
2021/08/02 01:36:59;;;;;;;16.33;9.63;;;;;;;;;;5072331;28;20495;-67
2021/08/02 01:39:25;;;;;;;24.92;11.10;;;;;;;;;;5071649;28;20152;-67
2021/08/02 01:41:50;;;;;;;16.73;10.47;;;;;;;;;;5053855;28;20059;-67
2021/08/02 01:44:15;;;;;;;22.87;10.93;;;;;;;;;;5071844;28;20259;-66
2021/08/02 01:47:01;;;;;;;15.38;9.65;;;;;;;;;;5072004;28;20294;-67
2021/08/02 01:49:31;;;;;;;17.30;9.82;;;;;;;;;;5063822;28;20485;-67
2021/08/02 01:51:57;;;;;;;17.98;10.13;;;;;;;;;;5071366;28;20059;-67
2021/08/02 01:54:28;;;;;;;18.73;12.07;;;;;;;;;;5071676;28;20032;-67
2021/08/02 01:57:00;;;;;;;14.77;9.20;;;;;;;;;;5070540;28;20121;-67
2021/08/02 01:59:27;;;;;;;16.55;10.10;;;;;;;;;;5070995;28;20024;-67
2021/08/02 02:01:56;;;;;;;17.40;10.38;;;;;;;;;;5071784;28;20530;-67
2021/08/02 02:04:24;;;;;;;19.92;11.10;;;;;;;;;;5070579;28;20067;-67
2021/08/02 02:06:51;;;;;;;13.57;9.65;;;;;;;;;;5071972;28;20024;-67
2021/08/02 02:09:16;;;;;;;23.40;10.95;;;;;;;;;;5070838;28;20117;-67
2021/08/02 02:11:43;;;;;;;19.88;10.48;;;;;;;;;;5071319;28;20032;-67
2021/08/02 02:14:09;;;;;;;15.65;10.27;;;;;;;;;;5071226;28;20044;-66
2021/08/02 02:16:35;;;;;;;16.92;10.15;;;;;;;;;;5071030;28;20459;-67
2021/08/02 02:19:02;;;;;;;20.98;11.10;;;;;;;;;;5070351;28;20359;-67
2021/08/02 02:21:28;;;;;;;19.50;10.40;;;;;;;;;;5071672;28;20066;-67
2021/08/02 02:23:54;;;;;;;16.98;10.70;;;;;;;;;;5070401;28;20042;-67
2021/08/02 02:26:20;;;;;;;15.38;9.85;;;;;;;;;;5071442;28;20108;-66
2021/08/02 02:28:45;;;;;;;19.58;10.70;;;;;;;;;;5070332;28;20172;-67
2021/08/02 02:31:11;;;;;;;16.20;9.75;;;;;;;;;;5070246;28;20166;-67
2021/08/02 02:33:36;;;;;;;19.65;10.52;;;;;;;;;;5070034;28;20111;-66
2021/08/02 02:36:02;;;;;;;15.90;9.80;;;;;;;;;;5071187;28;20243;-67
2021/08/02 02:38:27;;;;;;;19.75;10.98;;;;;;;;;;5070634;28;20762;-68
2021/08/02 02:40:53;;;;;;;17.08;10.05;;;;;;;;;;5071018;28;20035;-67
2021/08/02 02:43:18;;;;;;;20.23;10.90;;;;;;;;;;5070493;28;20027;-67
2021/08/02 02:45:45;;;;;;;15.43;9.68;;;;;;;;;;5070585;28;20396;-67
2021/08/02 02:48:10;;;;;;;16.40;9.45;;;;;;;;;;5070458;28;20032;-67
2021/08/02 02:50:36;;;;;;;21.02;9.73;;;;;;;;;;5070279;28;20021;-67
2021/08/02 02:53:02;;;;;;;18.58;10.48;;;;;;;;;;5070574;28;20538;-66
2021/08/02 02:55:29;;;;;;;20.30;10.32;;;;;;;;;;5070666;28;20060;-67
2021/08/02 02:57:54;;;;;;;16.98;10.00;;;;;;;;;;5070502;28;20036;-67
2021/08/02 03:00:20;;;;;;;18.20;10.37;;;;;;;;;;5069878;28;20377;-67
2021/08/02 03:02:46;;;;;;;15.88;9.93;;;;;;;;;;5069876;28;20361;-67
2021/08/02 03:05:11;;;;;;;19.60;11.10;;;;;;;;;;5069952;28;20023;-67
2021/08/02 03:07:38;;;;;;;17.55;10.38;;;;;;;;;;5069738;28;20056;-66
2021/08/02 03:10:04;;;;;;;19.27;10.20;;;;;;;;;;5069887;28;20021;-67
2021/08/02 03:12:30;;;;;;;20.25;10.10;;;;;;;;;;5069342;28;20090;-66
2021/08/02 03:14:56;;;;;;;19.25;9.93;;;;;;;;;;5070057;28;20507;-67
2021/08/02 03:17:21;;;;;;;17.98;9.50;;;;;;;;;;5070182;28;20028;-67
2021/08/02 03:19:46;;;;;;;19.33;10.20;;;;;;;;;;5069359;28;20042;-67
2021/08/02 03:22:17;;;;;;;21.95;10.23;;;;;;;;;;5069799;28;20270;-67
2021/08/02 03:24:46;;;;;;;19.35;10.73;;;;;;;;;;5051311;28;20036;-67
2021/08/02 03:27:17;;;;;;;22.60;10.18;;;;;;;;;;5070483;28;20028;-67
2021/08/02 03:29:42;;;;;;;;;;;;;;;;;;5069776;28;20044;-66
2021/08/02 03:32:09;;;;;;;19.70;10.80;;;;;;;;;;5069844;28;19909;-66
2021/08/02 03:34:35;;;;;;;19.15;9.98;;;;;;;;;;5069593;28;20024;-67
2021/08/02 03:37:03;;;;;;;24.92;10.40;;;;;;;;;;5070067;28;20071;-67
2021/08/02 03:39:28;;;;;;;19.75;10.95;;;;;;;;;;5069067;28;20017;-67
2021/08/02 03:41:54;;;;;;;23.90;10.23;;;;;;;;;;5059129;28;20523;-67
2021/08/02 03:44:20;;;;;;;16.50;8.95;;;;;;;;;;5069670;28;20473;-67
2021/08/02 03:46:45;;;;;;;16.05;9.80;;;;;;;;;;5069903;28;20036;-67
2021/08/02 03:49:11;;;;;;;20.65;10.18;;;;;;;;;;5069285;28;20095;-67
2021/08/02 03:51:56;;;;;;;22.27;9.75;;;;;;;;;;5069220;28;20032;-67
2021/08/02 03:54:22;;;;;;;18.95;10.02;;;;;;;;;;5063103;28;20044;-67
2021/08/02 03:56:47;;;;;;;20.63;10.02;;;;;;;;;;5069673;28;20093;-67
2021/08/02 03:59:12;;;;;;;18.02;9.25;;;;;;;;;;5068608;28;20020;-67
2021/08/02 04:01:38;;;;;;;15.38;9.32;;;;;;;;;;5069368;28;20024;-67
2021/08/02 04:04:04;;;;;;;22.50;8.73;;;;;;;;;;5068307;28;20017;-67
2021/08/02 04:06:29;;;;;;;18.67;8.82;;;;;;;;;;5069611;28;20503;-67
2021/08/02 04:08:54;;;;;;;14.73;7.07;;;;;;;;;;5069114;28;20491;-67
2021/08/02 04:11:19;;;;;;;17.60;6.33;;;;;;;;;;5069484;28;20279;-67
2021/08/02 04:13:44;;;;;;;15.65;6.43;;;;;;;;;;5069462;28;20265;-66
2021/08/02 04:16:09;;;;;;;18.50;6.90;;;;;;;;;;5069310;28;20052;-67
2021/08/02 04:18:35;;;;;;;10.70;5.37;;;;;;;;;;5068184;28;20378;-67
2021/08/02 04:21:00;;;;;;;15.60;5.70;;;;;;;;;;5052922;28;20255;-67
2021/08/02 04:23:25;;;;;;;13.00;5.32;;;;;;;;;;5060602;28;20352;-67
2021/08/02 04:25:50;;;;;;;10.07;4.50;;;;;;;;;;5069773;28;20043;-67
2021/08/02 04:28:15;;;;;;;11.38;4.50;;;;;;;;;;5069332;28;20267;-67
2021/08/02 04:30:40;;;;;;;12.80;4.53;;;;;;;;;;5068891;28;20059;-67
2021/08/02 04:33:06;;;;;;;10.90;4.40;;;;;;;;;;5066323;28;20395;-67
2021/08/02 04:35:31;;;;;;;8.23;4.37;;;;;;;;;;5060144;28;20766;-67
2021/08/02 04:37:56;;;;;;;12.38;3.58;;;;;;;;;;5052076;28;20301;-67
2021/08/02 04:40:21;;;;;;;10.20;4.30;;;;;;;;;;5072674;28;20035;-66
2021/08/02 04:42:46;;;;;;;8.63;3.60;;;;;;;;;;5072478;28;20341;-67
2021/08/02 04:45:12;;;;;;;13.38;4.07;;;;;;;;;;5072440;28;20258;-67
2021/08/02 04:47:37;;;;;;;15.45;4.07;;;;;;;;;;5072729;28;20452;-67
2021/08/02 04:50:02;;;;;;;13.73;3.10;;;;;;;;;;5054507;28;20035;-67
2021/08/02 04:52:28;;;;;;;11.25;3.33;;;;;;;;;;5072087;28;20263;-66
2021/08/02 04:54:53;;;;;;;10.45;3.35;;;;;;;;;;5072773;28;20477;-67
2021/08/02 04:57:18;;;;;;;17.23;3.80;;;;;;;;;;5072359;28;20500;-67
2021/08/02 04:59:43;;;;;;;9.17;3.03;;;;;;;;;;5071963;28;20029;-67
2021/08/02 05:02:09;;;;;;;9.15;3.53;;;;;;;;;;5072448;28;20259;-67
2021/08/02 05:04:34;;;;;;;9.25;3.30;;;;;;;;;;5072422;28;20399;-66
2021/08/02 05:06:59;;;;;;;11.00;3.15;;;;;;;;;;5072255;28;20373;-68
2021/08/02 05:09:24;;;;;;;8.32;3.53;;;;;;;;;;5072128;28;20062;-65
2021/08/02 05:11:53;;;;;;;11.53;3.33;;;;;;;;;;5071473;28;20197;-68
2021/08/02 05:14:18;;;;;;;10.93;3.50;;;;;;;;;;5060516;28;20291;-67
2021/08/02 05:16:46;;;;;;;9.27;3.40;;;;;;;;;;5065478;28;20032;-67
2021/08/02 05:19:11;;;;;;;11.50;3.38;;;;;;;;;;5050231;28;20262;-66
2021/08/02 05:21:36;;;;;;;14.98;3.40;;;;;;;;;;5051869;28;20251;-67
2021/08/02 05:24:02;;;;;;;13.38;3.67;;;;;;;;;;5070157;28;20020;-67
2021/08/02 05:26:27;;;;;;;16.98;5.25;;;;;;;;;;5069832;28;20028;-67
2021/08/02 05:28:52;;;;;;;8.02;4.32;;;;;;;;;;5067030;28;20366;-67
2021/08/02 05:31:17;;;;;;;18.42;5.10;;;;;;;;;;5058136;28;20385;-67
2021/08/02 05:33:43;;;;;;;14.83;4.10;;;;;;;;;;5066669;28;20142;-67
2021/08/02 05:36:08;;;;;;;14.75;5.47;;;;;;;;;;5061894;28;20716;-67
2021/08/02 05:38:33;;;;;;;11.32;4.25;;;;;;;;;;5067841;28;20016;-67
2021/08/02 05:40:58;;;;;;;10.43;4.40;;;;;;;;;;5069787;28;20020;-68
2021/08/02 05:43:24;;;;;;;11.73;3.80;;;;;;;;;;5069929;28;20329;-67
2021/08/02 05:45:50;;;;;;;11.55;4.22;;;;;;;;;;5069597;28;20024;-67
2021/08/02 05:48:15;;;;;;;17.73;4.70;;;;;;;;;;5068992;28;20488;-67
2021/08/02 05:50:40;;;;;;;15.50;5.33;;;;;;;;;;5069219;28;20058;-67
2021/08/02 05:53:05;;;;;;;23.50;6.27;;;;;;;;;;5066059;28;20354;-66
2021/08/02 05:55:30;;;;;;;18.77;5.80;;;;;;;;;;5064064;28;20956;-67
2021/08/02 05:57:56;;;;;;;17.42;6.03;;;;;;;;;;5066544;28;20282;-66
2021/08/02 06:00:22;;;;;;;20.63;6.57;;;;;;;;;;5063546;28;20024;-67
2021/08/02 06:02:48;;;;;;;19.30;7.15;;;;;;;;;;5071196;28;20029;-67
2021/08/02 06:05:13;;;;;;;18.70;7.28;;;;;;;;;;5068598;28;20009;-67
2021/08/02 06:07:41;;;;;;;21.17;7.28;;;;;;;;;;5064822;28;20381;-67
2021/08/02 06:10:07;;;;;;;20.35;6.43;;;;;;;;;;5067521;28;20506;-66
2021/08/02 06:12:32;;;;;;;25.88;9.43;;;;;;;;;;5067904;28;20059;-67
2021/08/02 06:14:57;;;;;;;33.30;9.00;;;;;;;;;;5068018;28;20032;-65
2021/08/02 06:17:23;;;;;;;25.10;8.93;;;;;;;;;;5071141;28;20032;-67
2021/08/02 06:19:48;;;;;;;18.95;7.63;;;;;;;;;;5069780;28;20290;-66
2021/08/02 06:22:13;;;;;;;15.80;7.73;;;;;;;;;;5069549;28;20115;-66
2021/08/02 06:24:38;;;;;;;20.77;6.23;;;;;;;;;;5070396;28;20274;-66
2021/08/02 06:27:04;;;;;;;16.10;6.03;;;;;;;;;;5070223;28;20267;-66
2021/08/02 06:29:29;;;;;;;17.80;5.22;;;;;;;;;;5070865;28;20502;-66
2021/08/02 06:31:54;;;;;;;19.20;5.70;;;;;;;;;;5071128;28;20024;-66
2021/08/02 06:34:19;;;;;;;18.73;5.53;;;;;;;;;;5071372;28;20277;-65
2021/08/02 06:36:44;;;;;;;18.97;5.03;;;;;;;;;;5071223;28;20279;-65
2021/08/02 06:39:09;;;;;;;10.17;4.90;;;;;;;;;;5070706;28;20805;-67
2021/08/02 06:41:35;;;;;;;12.17;4.37;;;;;;;;;;5070910;28;20259;-66
2021/08/02 06:44:00;;;;;;;10.67;4.80;;;;;;;;;;5066596;28;20286;-66
2021/08/02 06:46:25;;;;;;;12.57;3.88;;;;;;;;;;5063362;28;20271;-65
2021/08/02 06:48:50;;;;;;;14.03;4.07;;;;;;;;;;5070138;28;20036;-66
2021/08/02 06:51:18;;;;;;;20.40;4.23;;;;;;;;;;5062719;28;20267;-65
2021/08/02 06:53:43;;;;;;;11.95;4.32;;;;;;;;;;5062215;28;20285;-65
2021/08/02 06:56:08;;;;;;;15.57;3.87;;;;;;;;;;5068143;28;20421;-66
2021/08/02 06:58:33;;;;;;;17.33;4.38;;;;;;;;;;5051894;28;20338;-66
2021/08/02 07:00:59;;;;;;;18.33;4.10;;;;;;;;;;5066201;28;20020;-67
2021/08/02 07:03:24;;;;;;;11.67;3.80;;;;;;;;;;5060499;28;20055;-66
2021/08/02 07:05:49;;;;;;;23.90;4.80;;;;;;;;;;5068086;28;20271;-67
2021/08/02 07:08:14;;;;;;;14.93;4.13;;;;;;;;;;5068794;28;20546;-65
2021/08/02 07:10:39;;;;;;;17.63;4.80;;;;;;;;;;5070111;28;20625;-67
2021/08/02 07:13:05;;;;;;;14.43;4.63;;;;;;;;;;5070188;28;20636;-66
2021/08/02 07:15:30;;;;;;;10.23;3.83;;;;;;;;;;5070324;28;20495;-67
2021/08/02 07:17:55;;;;;;;10.77;4.33;;;;;;;;;;5068966;28;20266;-66
2021/08/02 07:20:20;;;;;;;16.10;3.80;;;;;;;;;;5070356;28;20256;-67
2021/08/02 07:22:45;;;;;;;19.43;4.13;;;;;;;;;;5070132;28;20258;-66
2021/08/02 07:25:11;;;;;;;21.05;4.28;;;;;;;;;;5069815;28;20739;-67
2021/08/02 07:27:38;;;;;;;13.48;5.13;;;;;;;;;;5069339;28;20262;-66
2021/08/02 07:30:04;;;;;;;17.02;4.88;;;;;;;;;;5045217;28;20021;-66
2021/08/02 07:32:29;;;;;;;17.23;5.55;;;;;;;;;;5069720;28;20058;-69
2021/08/02 07:34:54;;;;;;;13.17;4.87;;;;;;;;;;5062935;28;20031;-66
2021/08/02 07:37:20;;;;;;;14.57;4.93;;;;;;;;;;5063643;28;20291;-67
2021/08/02 07:39:45;;;;;;;10.53;4.27;;;;;;;;;;5069727;28;20282;-66
2021/08/02 07:42:10;;;;;;;15.70;5.27;;;;;;;;;;5070421;28;20342;-68
2021/08/02 07:44:35;;;;;;;17.77;4.15;;;;;;;;;;5069527;28;20445;-66
2021/08/02 07:47:00;;;;;;;11.73;3.75;;;;;;;;;;5069542;28;20032;-67
2021/08/02 07:49:26;;;;;;;11.13;3.65;;;;;;;;;;5069473;28;20028;-66
2021/08/02 07:51:51;;;;;;;9.83;3.70;;;;;;;;;;5054392;28;20097;-67
2021/08/02 07:54:16;;;;;;;15.43;4.00;;;;;;;;;;5069318;28;20267;-68
2021/08/02 07:56:41;;;;;;;12.17;3.40;;;;;;;;;;5069521;28;20654;-68
2021/08/02 07:59:06;;;;;;;18.33;3.92;;;;;;;;;;5069741;28;20538;-66
2021/08/02 08:01:31;;;;;;;18.60;4.67;;;;;;;;;;5069340;28;20028;-68
2021/08/02 08:03:57;;;;;;;12.88;3.55;;;;;;;;;;5069024;28;20514;-66
2021/08/02 08:06:22;;;;;;;19.85;3.95;;;;;;;;;;5069220;28;20032;-68
2021/08/02 08:08:47;;;;;;;14.45;3.50;;;;;;;;;;5051630;28;20048;-66
2021/08/02 08:11:13;;;;;;;13.65;4.10;;;;;;;;;;5070625;28;20078;-67
2021/08/02 08:13:38;;;;;;;15.48;4.15;;;;;;;;;;5073412;28;20123;-66
2021/08/02 08:16:04;;;;;;;27.45;4.50;;;;;;;;;;5072889;28;20561;-66
2021/08/02 08:18:29;;;;;;;14.70;3.95;;;;;;;;;;5073072;28;20103;-69
2021/08/02 08:20:55;;;;;;;16.05;3.63;;;;;;;;;;5073454;28;20029;-66
2021/08/02 08:23:20;;;;;;;16.67;5.07;;;;;;;;;;5073504;28;20020;-66
2021/08/02 08:25:46;;;;;;;11.52;3.58;;;;;;;;;;5073045;28;20055;-67
2021/08/02 08:28:11;;;;;;;13.10;3.58;;;;;;;;;;5073066;28;20055;-66
2021/08/02 08:30:36;;;;;;;13.80;4.03;;;;;;;;;;5073228;28;20485;-66
2021/08/02 08:33:01;;;;;;;20.48;3.65;;;;;;;;;;5073280;28;20039;-67
2021/08/02 08:35:27;;;;;;;12.38;3.40;;;;;;;;;;5072544;28;20421;-66
2021/08/02 08:37:52;;;;;;;20.50;4.07;;;;;;;;;;5073226;28;20027;-67
2021/08/02 08:40:17;;;;;;;11.47;3.37;;;;;;;;;;5072474;28;20596;-66
2021/08/02 08:42:42;;;;;;;11.63;3.97;;;;;;;;;;5054938;28;20259;-66
2021/08/02 08:45:08;;;;;;;14.13;4.30;;;;;;;;;;5072324;28;20024;-67
2021/08/02 08:47:35;;;;;;;19.88;3.97;;;;;;;;;;5072770;28;20021;-68
2021/08/02 08:50:00;;;;;;;17.30;4.05;;;;;;;;;;5072771;28;20097;-66
2021/08/02 08:52:26;;;;;;;17.67;4.55;;;;;;;;;;5055107;28;20508;-68
2021/08/02 08:54:51;;;;;;;13.05;3.80;;;;;;;;;;5053571;28;20035;-66
2021/08/02 08:57:16;;;;;;;12.93;3.87;;;;;;;;;;5072926;28;20035;-69
2021/08/02 08:59:48;;;;;;;19.20;5.17;;;;;;;;;;5072579;28;20289;-66
2021/08/02 09:02:14;;;;;;;11.75;4.40;;;;;;;;;;5072785;28;20267;-66
2021/08/02 09:04:40;;;;;;;16.70;4.70;;;;;;;;;;5072289;28;20133;-66
2021/08/02 09:07:05;;;;;;;18.83;4.45;;;;;;;;;;5073084;28;20025;-66
2021/08/02 09:09:32;;;;;;;14.38;4.40;;;;;;;;;;5067268;28;20131;-69
2021/08/02 09:12:03;;;;;;;11.00;4.43;;;;;;;;;;5072678;28;20025;-66
2021/08/02 09:14:29;;;;;;;13.63;4.07;;;;;;;;;;5066237;28;20369;-66
2021/08/02 09:16:57;;;;;;;19.07;4.87;;;;;;;;;;5072182;28;20077;-66
2021/08/02 09:19:22;;;;;;;14.13;4.30;;;;;;;;;;5070419;28;20285;-66
2021/08/02 09:21:53;;;;;;;10.13;3.87;;;;;;;;;;5071549;28;20491;-66
2021/08/02 09:24:32;;;;;;;15.85;4.20;;;;;;;;;;5071543;28;20330;-66
2021/08/02 09:26:57;;;;;;;14.90;4.95;;;;;;;;;;5063146;28;20354;-66
2021/08/02 09:29:26;;;;;;;16.23;4.87;;;;;;;;;;5063327;28;20029;-67
2021/08/02 09:31:51;;;;;;;16.42;4.55;;;;;;;;;;5066709;28;20254;-66
2021/08/02 09:34:16;;;;;;;15.38;4.60;;;;;;;;;;5061626;28;20066;-66
2021/08/02 09:36:54;;;;;;;16.38;4.90;;;;;;;;;;5071862;28;20082;-66
2021/08/02 09:39:20;;;;;;;12.68;4.07;;;;;;;;;;5052174;28;20053;-67
2021/08/02 09:41:45;;;;;;;16.75;4.00;;;;;;;;;;5070173;28;20052;-67
2021/08/02 09:44:21;;;;;;;12.27;3.92;;;;;;;;;;5067862;28;20082;-66
2021/08/02 09:46:59;;;;;;;13.48;4.50;;;;;;;;;;5071598;28;20035;-67
2021/08/02 09:49:25;;;;;;;19.20;4.38;;;;;;;;;;5072141;28;20465;-67
2021/08/02 09:51:51;;;;;;;10.98;3.08;;;;;;;;;;5071607;28;20074;-66
2021/08/02 09:54:24;;;;;;;12.57;3.47;;;;;;;;;;5071589;28;20025;-66
2021/08/02 09:56:50;;;;;;;9.43;3.28;;;;;;;;;;5071871;28;20051;-66
2021/08/02 09:59:16;;;;;;;12.57;3.67;;;;;;;;;;5071483;28;20031;-66
2021/08/02 10:01:41;;;;;;;12.65;3.70;;;;;;;;;;5071382;28;20024;-66
2021/08/02 10:04:09;;;;;;;14.77;3.53;;;;;;;;;;5070974;28;20021;-68
2021/08/02 10:06:34;;;;;;;14.68;3.67;;;;;;;;;;5071500;28;20029;-66
2021/08/02 10:09:00;;;;;;;16.20;2.92;;;;;;;;;;5058098;28;20107;-67
2021/08/02 10:11:25;;;;;;;7.10;2.88;;;;;;;;;;5071294;28;20024;-68
2021/08/02 10:13:51;;;;;;;10.70;3.30;;;;;;;;;;5070664;28;20024;-66
2021/08/02 10:16:17;;;;;;;7.28;2.45;;;;;;;;;;5070761;28;20610;-66
2021/08/02 10:18:49;;;;;;;19.85;3.15;;;;;;;;;;5071522;28;20012;-66
2021/08/02 10:21:15;;;;;;;11.90;2.17;;;;;;;;;;5070899;28;20017;-66
2021/08/02 10:23:40;;;;;;;7.18;2.38;;;;;;;;;;5071328;28;20024;-66
2021/08/02 10:26:27;;;;;;;13.63;2.97;;;;;;;;;;5070744;28;20039;-68
2021/08/02 10:28:53;;;;;;;7.90;3.15;;;;;;;;;;5069813;28;20278;-66
2021/08/02 10:31:20;;;;;;;7.82;2.80;;;;;;;;;;5071330;28;20032;-66
2021/08/02 10:33:45;;;;;;;14.60;2.75;;;;;;;;;;5068671;28;20301;-66
2021/08/02 10:36:14;;;;;;;7.97;2.58;;;;;;;;;;5061046;28;20108;-68
2021/08/02 10:38:47;;;;;;;8.18;3.13;;;;;;;;;;5061460;28;20016;-66
2021/08/02 10:41:25;;;;;;;9.43;3.08;;;;;;;;;;5063249;28;20081;-67
2021/08/02 10:43:51;;;;;;;7.68;3.38;;;;;;;;;;5069321;28;20499;-67
2021/08/02 10:46:16;;;;;;;11.20;3.13;;;;;;;;;;5070653;28;20032;-67
2021/08/02 10:48:42;;;;;;;10.50;3.90;;;;;;;;;;5070337;28;20481;-66
2021/08/02 10:51:09;;;;;;;7.43;2.38;;;;;;;;;;5070625;28;20436;-66
2021/08/02 10:53:34;;;;;;;7.90;3.22;;;;;;;;;;5070116;28;20025;-66
2021/08/02 10:55:59;;;;;;;9.13;2.97;;;;;;;;;;5069988;28;20020;-68
2021/08/02 10:58:39;;;;;;;6.87;2.97;;;;;;;;;;5070422;28;20359;-67
2021/08/02 11:01:05;;;;;;;11.23;3.90;;;;;;;;;;5070689;28;20271;-66
2021/08/02 11:03:32;;;;;;;8.32;3.55;;;;;;;;;;5070575;28;20021;-68
2021/08/02 11:05:58;;;;;;;7.30;3.10;;;;;;;;;;5070214;28;20028;-67
2021/08/02 11:08:24;;;;;;;8.70;2.35;;;;;;;;;;5070169;28;20047;-66
2021/08/02 11:10:49;;;;;;;7.63;2.70;;;;;;;;;;5070185;28;20027;-67
2021/08/02 11:13:24;;;;;;;6.07;3.00;;;;;;;;;;5069777;28;20787;-68
2021/08/02 11:15:50;;;;;;;8.45;2.58;;;;;;;;;;5070182;28;20016;-67
2021/08/02 11:18:22;;;;;;;10.80;2.80;;;;;;;;;;5069747;28;20039;-67
2021/08/02 11:20:47;;;;;;;6.32;2.58;;;;;;;;;;5070021;28;20016;-66
2021/08/02 11:23:12;;;;;;;6.57;2.73;;;;;;;;;;5069571;28;20031;-66
2021/08/02 11:25:37;;;;;;;9.53;2.43;;;;;;;;;;5070322;28;20691;-68
2021/08/02 11:28:03;;;;;;;7.50;2.73;;;;;;;;;;5069208;28;20066;-68
2021/08/02 11:30:29;;;;;;;5.93;2.70;;;;;;;;;;5069601;28;20273;-68
2021/08/02 11:32:56;;;;;;;9.02;2.60;;;;;;;;;;5069732;28;20028;-69
2021/08/02 11:35:29;;;;;;;7.70;2.70;;;;;;;;;;5067760;28;20126;-66
2021/08/02 11:37:56;;;;;;;7.22;2.55;;;;;;;;;;5059044;28;20045;-67
2021/08/02 11:40:21;;;;;;;10.03;3.07;;;;;;;;;;5069666;28;20115;-67
2021/08/02 11:42:50;;;;;;;11.45;2.83;;;;;;;;;;5068185;28;20699;-70
2021/08/02 11:45:16;;;;;;;6.40;3.27;;;;;;;;;;5064141;28;20416;-66
2021/08/02 11:47:42;;;;;;;9.25;3.22;;;;;;;;;;5055412;28;20255;-66
2021/08/02 11:50:08;;;;;;;6.20;3.33;;;;;;;;;;5068873;28;20523;-66
2021/08/02 11:52:33;;;;;;;16.13;4.40;;;;;;;;;;5047917;28;20033;-67
2021/08/02 11:55:17;;;;;;;20.38;4.57;;;;;;;;;;5063145;28;20032;-67
2021/08/02 11:57:42;;;;;;;15.45;4.20;;;;;;;;;;5044228;28;20074;-66
2021/08/02 12:00:17;;;;;;;13.20;4.10;;;;;;;;;;5069547;28;20497;-68
2021/08/02 12:02:44;;;;;;;17.80;4.70;;;;;;;;;;5053376;28;20029;-66
2021/08/02 12:05:18;;;;;;;9.88;4.95;;;;;;;;;;5069872;28;20059;-68
2021/08/02 12:07:44;;;;;;;15.07;4.40;;;;;;;;;;5069228;28;20445;-67
2021/08/02 12:10:10;;;;;;;11.70;5.20;;;;;;;;;;5069577;28;20095;-67
2021/08/02 12:12:37;;;;;;;21.65;5.82;;;;;;;;;;5069686;28;20028;-66
2021/08/02 12:15:03;;;;;;;13.57;4.72;;;;;;;;;;5084817;22;20052;-66
2021/08/02 12:17:28;;;;;;;10.45;4.93;;;;;;;;;;5051280;28;20492;-66
2021/08/02 12:19:54;;;;;;;18.23;6.50;;;;;;;;;;5069093;28;20035;-67
2021/08/02 12:22:20;;;;;;;12.70;5.40;;;;;;;;;;5068986;28;20100;-66
2021/08/02 12:24:55;;;;;;;10.70;5.55;;;;;;;;;;5067799;28;20028;-67
2021/08/02 12:27:21;;;;;;;12.43;5.88;;;;;;;;;;5068125;28;20028;-66
2021/08/02 12:30:06;;;;;;;12.60;5.85;;;;;;;;;;5058530;28;20020;-66
2021/08/02 12:32:37;;;;;;;13.00;6.18;;;;;;;;;;5054996;28;20028;-66
2021/08/02 12:35:04;;;;;;;17.38;6.80;;;;;;;;;;5063130;28;20407;-66
2021/08/02 12:37:29;;;;;;;11.75;5.55;;;;;;;;;;5054729;28;20032;-66
2021/08/02 12:39:55;;;;;;;11.23;5.60;;;;;;;;;;5054998;28;20024;-68
2021/08/02 12:42:25;;;;;;;19.02;6.28;;;;;;;;;;5063310;28;20012;-67
2021/08/02 12:44:50;;;;;;;;;;;;;;;;;;5068050;28;20472;-66
2021/08/02 12:47:16;;;;;;;9.95;5.40;;;;;;;;;;5056682;28;20380;-66
2021/08/02 12:49:41;;;;;;;9.00;4.83;;;;;;;;;;5065111;28;20031;-67
2021/08/02 12:52:06;;;;;;;9.57;5.75;;;;;;;;;;5056556;28;20393;-67
2021/08/02 12:54:31;;;;;;;14.80;5.05;;;;;;;;;;5053673;28;20032;-66
2021/08/02 12:56:56;;;;;;;16.63;5.53;;;;;;;;;;5069090;28;20455;-67
2021/08/02 12:59:21;;;;;;;9.83;4.70;;;;;;;;;;5084129;28;20274;-66
2021/08/02 13:01:47;;;;;;;7.93;4.00;;;;;;;;;;5072720;28;20465;-66
2021/08/02 13:04:12;;;;;;;10.93;3.83;;;;;;;;;;5062003;28;20274;-67
2021/08/02 13:06:37;;;;;;;6.57;3.27;;;;;;;;;;5067808;28;20247;-67
2021/08/02 13:09:02;;;;;;;8.37;2.70;;;;;;;;;;5053098;28;20032;-67
2021/08/02 13:11:27;;;;;;;8.87;3.47;;;;;;;;;;5064472;28;20269;-66
2021/08/02 13:13:52;;;;;;;8.87;3.80;;;;;;;;;;5064308;28;20272;-66
2021/08/02 13:16:18;;;;;;;5.93;2.87;;;;;;;;;;5064298;28;20028;-66
2021/08/02 13:18:45;;;;;;;9.53;2.77;;;;;;;;;;5063113;28;20092;-66
2021/08/02 13:21:10;;;;;;;6.85;2.83;;;;;;;;;;5060439;28;20283;-66
2021/08/02 13:23:42;;;;;;;5.65;2.25;;;;;;;;;;5059629;28;20021;-68
2021/08/02 13:28:51;;;;;;;5.50;2.10;;;;;;;;;;5055278;28;20035;-68
2021/08/02 13:31:16;;;;;;;5.00;2.43;;;;;;;;;;5067199;28;20037;-68
2021/08/02 13:33:41;;;;;;;8.17;2.07;;;;;;;;;;5038380;28;20732;-68
2021/08/02 13:36:06;;;;;;;5.38;2.53;;;;;;;;;;5068114;28;20086;-67
2021/08/02 13:38:32;;;;;;;5.33;2.73;;;;;;;;;;5053958;28;20021;-67
2021/08/02 13:40:57;;;;;;;3.17;1.83;;;;;;;;;;5064527;28;20256;-67
2021/08/02 13:43:22;;;;;;;9.98;2.28;;;;;;;;;;5052498;28;20028;-67
2021/08/02 13:45:47;;;;;;;10.47;2.47;;;;;;;;;;5055297;28;20021;-66
2021/08/02 13:48:13;;;;;;;7.13;3.10;;;;;;;;;;5061560;28;20346;-67
2021/08/02 13:50:38;;;;;;;7.43;2.33;;;;;;;;;;5069732;28;20267;-67
2021/08/02 13:53:03;;;;;;;7.55;2.20;;;;;;;;;;5068458;28;20520;-66
2021/08/02 13:55:30;;;;;;;4.95;1.85;;;;;;;;;;5071469;28;20024;-68
2021/08/02 13:57:55;;;;;;;5.03;1.95;;;;;;;;;;5069788;28;20044;-70
2021/08/02 14:00:20;;;;;;;3.78;1.63;;;;;;;;;;5071411;28;20425;-66
2021/08/02 14:02:45;;;;;;;3.33;1.65;;;;;;;;;;5072177;28;20120;-67
2021/08/02 14:05:11;;;;;;;4.97;2.27;;;;;;;;;;5072198;28;20020;-67
2021/08/02 14:07:36;;;;;;;5.60;2.70;;;;;;;;;;5071312;28;20784;-67
2021/08/02 14:10:02;;;;;;;7.10;3.25;;;;;;;;;;5052625;28;20028;-69
2021/08/02 14:12:32;;;;;;;10.35;2.33;;;;;;;;;;5062735;28;20017;-66
2021/08/02 14:15:01;;;;;;;4.93;2.17;;;;;;;;;;5052913;28;20057;-66
2021/08/02 14:17:28;;;;;;;9.45;2.20;;;;;;;;;;5056641;28;20035;-67
2021/08/02 14:19:55;;;;;;;7.30;2.05;;;;;;;;;;5070723;28;20029;-68
2021/08/02 14:22:21;;;;;;;9.40;1.95;;;;;;;;;;5062939;28;20040;-67
2021/08/02 14:24:49;;;;;;;7.22;1.63;;;;;;;;;;5051526;28;20466;-67
2021/08/02 14:27:14;;;;;;;9.20;2.03;;;;;;;;;;5051265;28;20049;-67
2021/08/02 14:29:40;;;;;;;6.00;2.15;;;;;;;;;;5068431;28;20056;-67